Time;durP1;ratioP1;P1;durP2;ratioP2;P2;SDS_P1;SDS_P2;PMS_P1;PMS_P2;Temp;Humidity;BMP_temperature;BMP_pressure;BME280_temperature;BME280_humidity;BME280_pressure;Samples;Min_cycle;Max_cycle;Signal;HPM_P1;HPM_P2
2021/09/30 19:39:22;;;;;;;3.55;1.20;;;13.70;99.90;;;11.58;75.64;101890.53;2552051;30;136555;-39
2021/09/30 19:41:49;;;;;;;4.40;1.27;;;13.10;99.90;;;11.61;77.14;101890.13;2570553;30;137151;-39
2021/09/30 19:44:17;;;;;;;2.20;1.00;;;13.10;99.90;;;11.57;75.07;101891.56;2569453;30;138393;-38
2021/09/30 19:46:45;;;;;;;4.18;1.00;;;13.00;99.90;;;11.60;74.21;101888.44;2571298;30;137525;-39
2021/09/30 19:49:12;;;;;;;6.00;1.13;;;13.00;99.90;;;11.54;73.46;101891.09;2568317;30;138437;-39
2021/09/30 19:51:40;;;;;;;3.58;1.27;;;13.00;99.90;;;11.50;73.39;101880.53;2568969;30;137923;-39
2021/09/30 19:54:07;;;;;;;3.65;0.98;;;13.00;99.90;;;11.44;74.42;101892.25;2568255;30;137851;-40
2021/09/30 19:56:35;;;;;;;4.32;1.45;;;12.90;99.90;;;11.43;75.03;101881.53;2569480;30;136729;-39
2021/09/30 19:59:03;;;;;;;2.92;1.08;;;12.90;99.90;;;11.45;74.38;101883.00;2569813;30;138578;-39
2021/09/30 20:01:30;;;;;;;3.67;1.02;;;12.90;99.90;;;11.42;72.56;101888.88;2569689;30;138545;-39
2021/09/30 20:03:58;;;;;;;2.13;0.90;;;12.90;99.90;;;11.35;72.29;101886.06;2568470;30;138228;-39
2021/09/30 20:06:27;;;;;;;5.35;1.17;;;12.80;99.90;;;11.34;72.38;101884.34;2569577;30;137171;-40
2021/09/30 20:08:55;;;;;;;2.45;1.25;;;12.80;99.90;;;11.37;72.99;101881.25;2569707;30;137343;-39
2021/09/30 20:11:24;;;;;;;5.85;1.40;;;12.80;99.90;;;11.32;72.90;101889.16;2569455;30;138665;-39
2021/09/30 20:13:51;;;;;;;5.25;1.30;;;12.80;99.90;;;11.28;73.67;101882.41;2569652;30;137437;-39
2021/09/30 20:16:19;;;;;;;4.72;1.30;;;12.80;99.90;;;11.25;73.05;101876.47;2569577;30;138453;-39
2021/09/30 20:18:47;;;;;;;3.92;1.70;;;12.70;99.90;;;11.18;72.67;101877.22;2569523;30;137153;-39
2021/09/30 20:21:14;;;;;;;;;;;12.70;99.90;;;11.11;73.17;101873.56;2567804;30;137576;-39
2021/09/30 20:23:42;;;;;;;2.63;1.20;;;12.60;99.90;;;11.09;72.91;101883.84;2566919;30;136775;-39
2021/09/30 20:26:10;;;;;;;3.08;1.27;;;12.60;99.90;;;11.09;72.53;101872.94;2569502;30;136865;-39
2021/09/30 20:28:37;;;;;;;6.22;1.30;;;12.60;99.90;;;11.05;73.37;101877.06;2568269;30;136978;-39
2021/09/30 20:31:08;;;;;;;5.05;1.27;;;12.60;99.90;;;11.00;74.21;101872.19;2569325;30;137572;-40
2021/09/30 20:33:36;;;;;;;3.55;1.35;;;12.50;99.90;;;10.96;73.66;101875.47;2568855;30;138366;-39
2021/09/30 20:36:05;;;;;;;3.50;1.20;;;12.50;99.90;;;10.90;74.81;101872.47;2565182;30;138333;-39
2021/09/30 20:38:34;;;;;;;3.10;1.10;;;12.40;99.90;;;10.88;73.34;101879.16;2568554;30;139143;-39
2021/09/30 20:41:02;;;;;;;5.53;1.23;;;12.40;99.90;;;10.84;74.24;101875.09;2568313;30;137587;-39
2021/09/30 20:43:29;;;;;;;;;;;12.40;99.90;;;10.81;74.13;101870.88;2569083;30;138616;-39
2021/09/30 20:45:57;;;;;;;3.80;1.00;;;12.30;99.90;;;10.79;74.05;101872.94;2569184;30;136871;-39
2021/09/30 20:48:25;;;;;;;4.90;1.30;;;12.30;99.90;;;10.79;74.32;101878.41;2570031;30;137243;-39
2021/09/30 20:50:52;;;;;;;3.83;1.15;;;12.30;99.90;;;10.85;74.00;101869.47;2570487;30;138165;-39
2021/09/30 20:53:20;;;;;;;4.43;1.25;;;12.30;99.90;;;10.77;75.06;101864.09;2569766;30;139072;-39
2021/09/30 20:55:48;;;;;;;7.55;1.13;;;12.30;99.90;;;10.81;74.50;101873.59;2566601;30;138655;-39
2021/09/30 20:58:15;;;;;;;;;;;12.30;99.90;;;10.78;74.63;101863.91;2568939;30;137356;-39
2021/09/30 21:00:43;;;;;;;4.60;1.20;;;12.30;99.90;;;10.75;75.24;101864.28;2569313;30;137167;-39
2021/09/30 21:03:11;;;;;;;4.15;1.30;;;12.20;99.90;;;10.78;75.45;101861.16;2568462;30;138335;-39
2021/09/30 21:05:39;;;;;;;4.18;1.25;;;12.20;99.90;;;10.74;74.95;101861.72;2569161;30;137386;-39
2021/09/30 21:08:06;;;;;;;3.67;1.40;;;12.20;99.90;;;10.68;75.11;101857.88;2567379;30;138180;-39
2021/09/30 21:10:34;;;;;;;4.05;1.20;;;12.20;99.90;;;10.61;75.73;101854.22;2565453;30;138398;-39
2021/09/30 21:13:02;;;;;;;4.18;1.30;;;12.20;99.90;;;10.62;75.99;101850.47;2569030;30;137406;-39
2021/09/30 21:15:30;;;;;;;3.25;1.20;;;12.10;99.90;;;10.60;76.13;101855.22;2569839;30;137526;-39
2021/09/30 21:17:58;;;;;;;5.78;1.58;;;12.10;99.90;;;10.60;75.40;101852.50;2570595;30;137134;-39
2021/09/30 21:20:25;;;;;;;4.65;1.17;;;12.10;99.90;;;10.64;75.81;101841.03;2570471;30;138116;-39
2021/09/30 21:22:55;;;;;;;4.68;1.25;;;12.10;99.90;;;10.67;75.94;101847.16;2570594;30;138196;-39
2021/09/30 21:25:23;;;;;;;5.57;1.25;;;12.10;99.90;;;10.63;76.22;101846.69;2570598;30;137396;-39
2021/09/30 21:27:51;;;;;;;3.50;1.17;;;12.10;99.90;;;10.56;76.42;101834.81;2566762;30;138351;-39
2021/09/30 21:30:18;;;;;;;;;;;12.10;99.90;;;10.57;76.48;101839.22;2567597;30;136925;-39
2021/09/30 21:32:46;;;;;;;6.03;1.40;;;12.00;99.90;;;10.56;75.96;101834.81;2566223;30;139343;-40
2021/09/30 21:35:17;;;;;;;3.67;1.10;;;12.00;99.90;;;10.60;76.69;101830.66;2569588;30;137450;-39
2021/09/30 21:37:46;;;;;;;2.85;1.00;;;12.10;99.90;;;10.49;76.65;101832.84;2569141;30;138272;-39
2021/09/30 21:40:16;;;;;;;4.03;1.30;;;12.10;99.90;;;10.45;76.64;101833.38;2566927;30;137503;-40
2021/09/30 21:42:45;;;;;;;6.63;1.40;;;12.00;99.90;;;10.39;76.94;101829.53;2568623;30;139063;-39
2021/09/30 21:45:13;;;;;;;4.40;1.27;;;11.90;99.90;;;10.33;77.21;101830.25;2568559;30;136804;-39
2021/09/30 21:47:44;;;;;;;5.88;1.63;;;11.90;99.90;;;10.28;77.19;101822.63;2566682;30;138473;-39
2021/09/30 21:50:13;;;;;;;4.60;1.10;;;11.80;99.90;;;10.26;77.00;101819.25;2565519;30;137678;-39
2021/09/30 21:52:42;;;;;;;4.63;1.80;;;11.80;99.90;;;10.19;77.60;101807.38;2568686;30;137164;-40
2021/09/30 21:55:10;;;;;;;3.72;1.38;;;11.70;99.90;;;10.16;78.04;101814.06;2566782;30;137316;-39
2021/09/30 21:57:37;;;;;;;5.00;1.20;;;11.70;99.90;;;10.17;77.70;101807.56;2570818;30;138627;-40
2021/09/30 22:00:17;;;;;;;6.85;1.40;;;11.70;99.90;;;10.15;77.99;101804.19;2568927;30;137425;-39
2021/09/30 22:02:47;;;;;;;4.03;1.20;;;11.70;99.90;;;10.10;78.80;101803.91;2568594;30;139058;-39
2021/09/30 22:05:17;;;;;;;5.18;1.38;;;11.60;99.90;;;10.06;78.52;101802.56;2566114;30;137403;-40
2021/09/30 22:07:44;;;;;;;4.82;1.50;;;11.60;99.90;;;10.02;78.64;101802.09;2568910;30;136871;-39
2021/09/30 22:10:12;;;;;;;3.55;1.23;;;11.60;99.90;;;9.97;78.81;101793.63;2568623;30;137384;-39
2021/09/30 22:12:40;;;;;;;4.28;1.30;;;11.60;99.90;;;9.95;79.05;101803.88;2568583;30;138324;-39
2021/09/30 22:15:08;;;;;;;4.68;1.50;;;11.50;99.90;;;9.97;79.36;101796.34;2569696;30;137485;-39
2021/09/30 22:17:36;;;;;;;5.03;1.30;;;11.50;99.90;;;9.88;79.19;101783.81;2568243;30;138101;-39
2021/09/30 22:20:05;;;;;;;5.75;1.30;;;11.50;99.90;;;9.90;79.36;101782.59;2569839;30;136768;-39
2021/09/30 22:22:32;;;;;;;6.35;1.35;;;11.50;99.90;;;9.97;78.96;101776.41;2567860;30;137914;-39
2021/09/30 22:25:00;;;;;;;5.93;1.45;;;11.50;99.90;;;9.95;78.98;101773.03;2567825;30;138195;-39
2021/09/30 22:27:29;;;;;;;5.20;1.25;;;11.50;99.90;;;9.93;78.57;101782.22;2569455;30;138414;-40
2021/09/30 22:29:59;;;;;;;4.50;1.30;;;11.40;99.90;;;9.92;79.25;101780.53;2570498;30;137672;-39
2021/09/30 22:32:27;;;;;;;2.88;1.27;;;11.50;99.90;;;9.89;78.68;101766.44;2570251;30;138249;-39
2021/09/30 22:34:55;;;;;;;4.35;1.70;;;11.50;99.90;;;9.93;79.15;101771.34;2566976;30;137783;-39
2021/09/30 22:37:23;;;;;;;4.10;1.42;;;11.40;99.90;;;9.87;78.85;101769.34;2568014;30;138995;-39
2021/09/30 22:39:51;;;;;;;2.75;1.38;;;11.40;99.90;;;9.86;78.80;101770.38;2569873;30;138165;-39
2021/09/30 22:42:18;;;;;;;5.63;1.20;;;11.40;99.90;;;9.90;79.03;101766.25;2569367;30;137137;-39
2021/09/30 22:44:46;;;;;;;6.95;1.58;;;11.40;99.90;;;9.84;79.16;101774.31;2571884;30;137654;-39
2021/09/30 22:47:14;;;;;;;4.97;1.17;;;11.40;99.90;;;9.79;79.08;101769.41;2569501;30;139167;-39
2021/09/30 22:49:42;;;;;;;3.85;1.40;;;11.30;99.90;;;9.85;78.63;101774.16;2568292;30;138048;-39
2021/09/30 22:52:09;;;;;;;5.82;1.80;;;11.30;99.90;;;9.81;79.57;101769.25;2571056;30;138515;-39
2021/09/30 22:54:37;;;;;;;5.30;1.40;;;11.30;99.90;;;9.81;79.19;101774.69;2568573;30;137659;-39
2021/09/30 22:57:14;;;;;;;5.22;1.42;;;11.30;99.90;;;9.84;78.58;101769.72;2565406;30;138141;-39
2021/09/30 22:59:42;;;;;;;6.32;1.55;;;11.40;99.90;;;9.86;78.96;101777.69;2568612;30;137541;-39
2021/09/30 23:02:09;;;;;;;6.18;1.55;;;11.30;99.90;;;9.95;78.15;101775.75;2568191;30;138424;-39
2021/09/30 23:04:37;;;;;;;4.28;1.33;;;11.40;99.90;;;9.96;78.18;101769.25;2568584;30;136829;-39
2021/09/30 23:07:05;;;;;;;6.20;1.42;;;11.40;99.90;;;10.00;78.15;101771.44;2569431;30;138264;-39
2021/09/30 23:09:33;;;;;;;5.82;1.52;;;11.50;99.90;;;10.02;77.19;101769.38;2569138;30;137686;-39
2021/09/30 23:12:01;;;;;;;4.18;1.20;;;11.50;99.90;;;10.08;77.47;101760.44;2570638;30;138386;-39
2021/09/30 23:14:29;;;;;;;5.35;1.30;;;11.50;99.90;;;10.18;77.08;101765.63;2567218;30;138033;-39
2021/09/30 23:16:58;;;;;;;2.17;1.10;;;11.60;99.90;;;10.23;77.85;101751.44;2571463;30;138191;-39
2021/09/30 23:19:26;;;;;;;7.13;1.80;;;11.60;99.90;;;10.25;77.15;101759.41;2567526;30;136944;-39
2021/09/30 23:21:58;;;;;;;4.50;1.20;;;11.70;99.90;;;10.24;77.24;101760.47;2566918;30;138580;-39
2021/09/30 23:24:30;;;;;;;3.80;1.42;;;11.70;99.90;;;10.27;77.40;101760.06;2570463;30;137495;-40
2021/09/30 23:27:00;;;;;;;4.60;1.42;;;11.70;99.90;;;10.29;77.25;101747.97;2568927;30;138796;-39
2021/09/30 23:29:29;;;;;;;2.85;1.30;;;11.70;99.90;;;10.29;76.85;101745.22;2570856;30;138514;-39
2021/09/30 23:31:58;;;;;;;5.45;1.38;;;11.80;99.90;;;10.31;77.38;101745.88;2569710;30;137305;-39
2021/09/30 23:34:26;;;;;;;3.38;1.40;;;11.80;99.90;;;10.34;76.75;101744.66;2569586;30;137659;-38
2021/09/30 23:36:55;;;;;;;3.72;1.40;;;11.80;99.90;;;10.36;76.74;101743.44;2569822;30;137246;-39
2021/09/30 23:39:25;;;;;;;4.22;1.48;;;11.80;99.90;;;10.33;77.21;101737.50;2568738;30;137551;-39
2021/09/30 23:41:53;;;;;;;4.93;1.27;;;11.80;99.90;;;10.34;77.08;101736.47;2567374;30;138988;-39
2021/09/30 23:44:21;;;;;;;;;;;11.80;99.90;;;10.32;76.59;101733.94;2569614;30;137414;-39
2021/09/30 23:46:49;;;;;;;2.80;1.40;;;11.80;99.90;;;10.30;76.52;101738.75;2570269;30;139301;-39
2021/09/30 23:49:16;;;;;;;;;;;11.80;99.90;;;10.29;76.81;101728.00;2567954;30;137707;-39
2021/09/30 23:51:44;;;;;;;5.63;1.25;;;11.80;99.90;;;10.28;76.38;101729.03;2567379;30;139106;-39
2021/09/30 23:54:12;;;;;;;5.03;1.30;;;11.70;99.90;;;10.27;76.49;101720.03;2567012;30;136908;-39
2021/09/30 23:56:39;;;;;;;4.40;1.25;;;11.70;99.90;;;10.29;76.35;101728.00;2567590;30;138974;-40
2021/09/30 23:59:07;;;;;;;4.47;1.38;;;11.80;99.90;;;10.27;76.73;101713.72;2567732;30;138025;-39
